Hot Springs, South Dakota
Current Conditions -  °F | °C
As of 12:53 PM on Wednesday 17 Dec 2014 (Local Time) from KCUT Reporting Station
Clear Clear  
Wind Chill: 28°   Ceiling: Unl
Heat Index: 35°   Visibility: 10mi
Dew Point: 18°   Wind: 9mph
Humidity: 50%   Direction: 250°WSW
Pressure: 29.85"   Gusts: 17mph
Location:  43.43°N, 103.47°W
Report Text: KCUT 171953Z AUTO 25008G15KT 10SM CLR 02/M08 A2985 RMK AO2 SLP138 T00171078
Loading
Personal Weather Stations






























Interactive Weather Map New forecast layout! Learn more

10-Day Weather Forecast

Advertisements
Track Severe Weather on mobile